createdAt,value
2017-05-09T00:00:00.032Z,98.02
2017-05-09T00:01:44.858Z,97.83
2017-05-09T00:02:45.468Z,97.83
2017-05-09T00:03:46.079Z,97.83
2017-05-09T00:04:46.669Z,98.11
2017-05-09T00:05:47.265Z,97.92
2017-05-09T00:06:47.922Z,97.92
2017-05-09T00:07:48.527Z,97.83
2017-05-09T00:08:49.136Z,97.83
2017-05-09T00:09:49.732Z,97.74
2017-05-09T00:10:50.346Z,97.83
2017-05-09T00:11:50.951Z,97.92
2017-05-09T00:12:51.558Z,97.83
2017-05-09T00:13:52.146Z,97.92
2017-05-09T00:14:52.753Z,97.92
2017-05-09T00:15:53.356Z,97.64
2017-05-09T00:16:53.963Z,97.55
2017-05-09T00:17:54.617Z,98.11
2017-05-09T00:18:55.163Z,98.02
2017-05-09T00:19:55.768Z,98.21
2017-05-09T00:20:56.373Z,98.30
2017-05-09T00:21:56.966Z,98.21
2017-05-09T00:22:57.564Z,98.30
2017-05-09T00:23:58.172Z,98.68
2017-05-09T00:24:58.778Z,98.68
2017-05-09T00:25:59.380Z,98.87
2017-05-09T00:26:59.985Z,98.68
2017-05-09T00:28:00.578Z,98.68
2017-05-09T00:29:01.168Z,99.26
2017-05-09T00:30:01.765Z,98.97
2017-05-09T00:31:02.364Z,98.97
2017-05-09T00:32:02.960Z,98.97
2017-05-09T00:33:03.559Z,99.39
2017-05-09T00:34:04.164Z,99.20
2017-05-09T00:35:04.758Z,99.16
2017-05-09T00:36:05.367Z,99.35
2017-05-09T00:37:05.975Z,99.96
2017-05-09T00:38:06.578Z,99.87
2017-05-09T00:39:07.172Z,99.99
2017-05-09T00:40:07.778Z,99.99
2017-05-09T00:41:08.370Z,99.99
2017-05-09T00:42:08.962Z,99.99
2017-05-09T00:43:09.568Z,99.99
2017-05-09T00:44:10.161Z,99.99
2017-05-09T00:45:10.769Z,99.99
2017-05-09T00:46:11.364Z,99.99
2017-05-09T00:47:11.961Z,99.99
2017-05-09T00:48:12.566Z,99.99
2017-05-09T00:49:13.172Z,99.99
2017-05-09T00:50:13.773Z,99.99
2017-05-09T00:51:14.370Z,99.99
2017-05-09T00:52:14.969Z,99.99
2017-05-09T00:53:15.576Z,99.99
2017-05-09T00:54:16.169Z,99.99
2017-05-09T00:55:16.767Z,99.99
2017-05-09T00:56:17.374Z,99.99
2017-05-09T00:57:17.985Z,99.99
2017-05-09T00:58:18.593Z,99.99
2017-05-09T00:59:19.198Z,99.99
2017-05-09T01:00:19.789Z,99.99
2017-05-09T01:01:20.381Z,99.99
2017-05-09T01:02:20.988Z,99.99
2017-05-09T01:03:21.593Z,99.99
2017-05-09T01:04:22.201Z,99.99
2017-05-09T01:05:22.807Z,99.99
2017-05-09T01:06:23.401Z,99.99
2017-05-09T01:07:24.042Z,99.99
2017-05-09T01:08:24.648Z,99.99
2017-05-09T01:09:25.251Z,99.99
2017-05-09T01:10:25.841Z,99.99
2017-05-09T01:11:26.443Z,99.99
2017-05-09T01:12:27.084Z,99.99
2017-05-09T01:13:27.688Z,99.99
2017-05-09T01:14:28.294Z,99.99
2017-05-09T01:15:28.904Z,99.99
2017-05-09T01:16:29.513Z,99.99
2017-05-09T01:17:30.169Z,99.99
2017-05-09T01:18:30.766Z,99.99
2017-05-09T01:19:31.356Z,99.99
2017-05-09T01:20:31.958Z,99.99
2017-05-09T01:21:32.551Z,99.99
2017-05-09T01:22:33.205Z,99.99
2017-05-09T01:23:33.798Z,99.99
2017-05-09T01:24:34.394Z,99.99
2017-05-09T01:25:34.983Z,99.99
2017-05-09T01:26:35.577Z,99.99
2017-05-09T01:27:36.171Z,99.99
2017-05-09T01:28:36.772Z,99.99
2017-05-09T01:29:37.364Z,99.99
2017-05-09T01:30:37.972Z,99.99
2017-05-09T01:31:38.566Z,99.99
2017-05-09T01:32:39.232Z,99.99
2017-05-09T01:33:39.830Z,99.99
2017-05-09T01:34:40.437Z,99.99
2017-05-09T01:35:41.039Z,99.99
2017-05-09T01:36:41.649Z,99.99
2017-05-09T01:37:42.247Z,99.99
2017-05-09T01:38:42.857Z,99.99
2017-05-09T01:39:43.466Z,99.99
2017-05-09T01:40:44.072Z,99.99
2017-05-09T01:41:44.678Z,99.99
2017-05-09T01:42:45.318Z,99.99
2017-05-09T01:43:45.913Z,99.99
2017-05-09T01:44:46.502Z,99.99
2017-05-09T01:45:47.098Z,99.99
2017-05-09T01:46:47.703Z,99.99
2017-05-09T01:47:48.310Z,99.99
2017-05-09T01:48:48.919Z,99.99
2017-05-09T01:49:49.522Z,99.99
2017-05-09T01:50:50.122Z,99.99
2017-05-09T01:51:50.718Z,99.99
2017-05-09T01:52:51.373Z,99.99
2017-05-09T01:53:51.983Z,99.99
2017-05-09T01:54:52.592Z,99.99
2017-05-09T01:55:53.194Z,99.99
2017-05-09T01:56:53.788Z,99.99
2017-05-09T01:57:54.380Z,99.99
2017-05-09T01:58:54.986Z,99.99
2017-05-09T01:59:55.587Z,99.99
2017-05-09T02:00:56.191Z,99.99
2017-05-09T02:01:56.795Z,99.99
2017-05-09T02:02:57.389Z,99.99
2017-05-09T02:03:57.997Z,99.99
2017-05-09T02:04:58.589Z,99.99
2017-05-09T02:05:59.192Z,99.99
2017-05-09T02:06:59.794Z,99.99
2017-05-09T02:08:00.399Z,99.99
2017-05-09T02:09:01.071Z,99.99
2017-05-09T02:10:01.596Z,99.99
2017-05-09T02:11:02.192Z,99.99
2017-05-09T02:12:02.800Z,99.99
2017-05-09T02:13:03.457Z,99.99
2017-05-09T02:14:04.062Z,99.99
2017-05-09T02:15:04.667Z,99.99
2017-05-09T02:16:05.256Z,99.99
2017-05-09T02:17:05.847Z,99.99
2017-05-09T02:18:06.454Z,99.99
2017-05-09T02:19:07.059Z,99.99
2017-05-09T02:20:07.650Z,99.99
2017-05-09T02:21:08.242Z,99.99
2017-05-09T02:22:08.836Z,99.99
2017-05-09T02:23:09.437Z,99.99
2017-05-09T02:24:10.042Z,99.99
2017-05-09T02:25:10.643Z,99.99
2017-05-09T02:26:11.238Z,99.99
2017-05-09T02:27:11.832Z,99.99
2017-05-09T02:28:12.422Z,99.99
2017-05-09T02:29:13.031Z,99.99
2017-05-09T02:30:13.642Z,99.99
2017-05-09T02:31:14.231Z,99.99
2017-05-09T02:32:14.834Z,99.99
2017-05-09T02:33:15.426Z,99.99
2017-05-09T02:34:16.031Z,99.99
2017-05-09T02:35:16.637Z,99.99
2017-05-09T02:36:17.229Z,99.99
2017-05-09T02:37:17.821Z,99.99
2017-05-09T02:38:18.429Z,99.99
2017-05-09T02:39:19.022Z,99.99
2017-05-09T02:40:19.620Z,99.99
2017-05-09T02:41:20.212Z,99.99
2017-05-09T02:42:20.808Z,99.99
2017-05-09T02:43:21.411Z,99.99
2017-05-09T02:44:22.018Z,99.99
2017-05-09T02:45:22.622Z,99.99
2017-05-09T02:46:23.216Z,99.99
2017-05-09T02:47:23.810Z,99.99
2017-05-09T02:48:24.419Z,99.99
2017-05-09T02:49:25.007Z,99.99
2017-05-09T02:50:25.610Z,99.99
2017-05-09T02:51:26.212Z,99.99
2017-05-09T02:52:26.802Z,99.99
2017-05-09T02:53:27.399Z,99.99
2017-05-09T02:54:28.007Z,99.99
2017-05-09T02:55:28.612Z,99.99
2017-05-09T02:56:29.204Z,99.99
2017-05-09T02:57:29.809Z,99.99
2017-05-09T02:58:30.412Z,99.99
2017-05-09T02:59:31.005Z,99.99
2017-05-09T03:00:31.614Z,99.99
2017-05-09T03:01:32.200Z,99.99
2017-05-09T03:02:32.789Z,99.99
2017-05-09T03:03:33.483Z,99.99
2017-05-09T03:04:34.082Z,99.99
2017-05-09T03:05:34.688Z,99.99
2017-05-09T03:06:35.297Z,99.99
2017-05-09T03:07:35.903Z,99.99
2017-05-09T03:08:36.496Z,99.99
2017-05-09T03:09:37.105Z,99.99
2017-05-09T03:10:37.704Z,99.99
2017-05-09T03:11:38.295Z,99.99
2017-05-09T03:12:38.903Z,99.99
2017-05-09T03:13:39.561Z,99.99
2017-05-09T03:14:40.157Z,99.99
2017-05-09T03:15:40.749Z,99.99
2017-05-09T03:16:41.342Z,99.99
2017-05-09T03:17:41.934Z,99.99
2017-05-09T03:18:42.584Z,99.99
2017-05-09T03:19:43.188Z,99.99
2017-05-09T03:20:43.795Z,99.99
2017-05-09T03:21:44.395Z,99.99
2017-05-09T03:22:45.007Z,99.99
2017-05-09T03:23:45.651Z,99.99
2017-05-09T03:24:46.258Z,99.99
2017-05-09T03:25:46.851Z,99.99
2017-05-09T03:26:47.457Z,99.99
2017-05-09T03:27:48.052Z,99.99
2017-05-09T03:28:48.702Z,99.99
2017-05-09T03:29:49.305Z,99.99
2017-05-09T03:30:49.905Z,99.99
2017-05-09T03:31:50.511Z,99.99
2017-05-09T03:32:51.107Z,99.99
2017-05-09T03:33:51.713Z,99.99
2017-05-09T03:34:52.314Z,99.99
2017-05-09T03:35:52.917Z,99.99
2017-05-09T03:36:53.520Z,99.99
2017-05-09T03:37:54.113Z,99.99
2017-05-09T03:38:54.721Z,99.99
2017-05-09T03:39:55.325Z,99.99
2017-05-09T03:40:55.920Z,99.99
2017-05-09T03:41:56.511Z,99.99
2017-05-09T03:42:57.119Z,99.99
2017-05-09T03:43:57.728Z,99.99
2017-05-09T03:44:58.336Z,99.99
2017-05-09T03:45:58.930Z,99.99
2017-05-09T03:46:59.532Z,99.99
2017-05-09T03:48:00.127Z,99.99
2017-05-09T03:49:00.727Z,99.99
2017-05-09T03:50:01.322Z,99.99
2017-05-09T03:51:01.916Z,99.99
2017-05-09T03:52:02.531Z,99.99
2017-05-09T03:53:03.134Z,99.99
2017-05-09T03:54:03.795Z,99.99
2017-05-09T03:55:04.392Z,99.99
2017-05-09T03:56:04.990Z,99.99
2017-05-09T03:57:05.580Z,99.99
2017-05-09T03:58:06.172Z,99.99
2017-05-09T03:59:06.769Z,99.99
2017-05-09T04:00:07.364Z,99.99
2017-05-09T04:01:07.958Z,99.99
2017-05-09T04:02:08.551Z,99.99
2017-05-09T04:03:09.156Z,99.99
2017-05-09T04:04:09.815Z,99.99
2017-05-09T04:05:10.412Z,99.99
2017-05-09T04:06:11.022Z,99.99
2017-05-09T04:07:11.626Z,99.99
2017-05-09T04:08:12.223Z,99.99
2017-05-09T04:09:12.840Z,99.99
2017-05-09T04:10:13.439Z,99.99
2017-05-09T04:11:14.036Z,99.99
2017-05-09T04:12:14.643Z,99.99
2017-05-09T04:13:15.238Z,99.99
2017-05-09T04:14:15.889Z,99.99
2017-05-09T04:15:16.505Z,99.99
2017-05-09T04:16:17.108Z,99.99
2017-05-09T04:17:17.706Z,99.99
2017-05-09T04:18:18.316Z,99.99
2017-05-09T04:19:18.963Z,99.99
2017-05-09T04:20:19.600Z,99.99
2017-05-09T04:21:20.176Z,99.99
2017-05-09T04:22:20.770Z,99.99
2017-05-09T04:23:21.372Z,99.99
2017-05-09T04:24:22.029Z,99.99
2017-05-09T04:25:22.641Z,99.99
2017-05-09T04:26:23.246Z,99.99
2017-05-09T04:27:23.834Z,99.99
2017-05-09T04:28:24.441Z,99.99
2017-05-09T04:29:25.096Z,99.99
2017-05-09T04:30:25.707Z,99.99
2017-05-09T04:31:26.299Z,99.99
2017-05-09T04:32:26.905Z,99.99
2017-05-09T04:33:27.510Z,99.99
2017-05-09T04:34:28.169Z,99.99
2017-05-09T04:35:28.766Z,99.99
2017-05-09T04:36:29.376Z,99.99
2017-05-09T04:37:29.989Z,99.99
2017-05-09T04:38:30.604Z,99.99
2017-05-09T04:39:31.218Z,99.99
2017-05-09T04:40:31.824Z,99.99
2017-05-09T04:41:32.427Z,99.99
2017-05-09T04:42:33.039Z,99.99
2017-05-09T04:43:33.641Z,99.99
2017-05-09T04:44:34.254Z,99.99
2017-05-09T04:45:34.855Z,99.99
2017-05-09T04:46:35.460Z,98.64
2017-05-09T04:47:36.077Z,97.97
2017-05-09T04:48:36.693Z,96.60
2017-05-09T04:49:37.342Z,95.60
2017-05-09T04:50:37.960Z,93.60
2017-05-09T04:51:38.561Z,91.61
2017-05-09T04:52:39.175Z,89.89
2017-05-09T04:53:39.818Z,89.27
2017-05-09T04:54:40.417Z,87.75
2017-05-09T04:55:41.041Z,86.32
2017-05-09T04:56:41.647Z,84.89
2017-05-09T04:57:42.248Z,84.99
2017-05-09T04:58:42.860Z,85.47
2017-05-09T04:59:43.524Z,86.13
2017-05-09T05:00:44.162Z,84.84
2017-05-09T05:01:44.738Z,83.98
2017-05-09T05:02:45.343Z,82.65
2017-05-09T05:03:45.961Z,82.51
2017-05-09T05:04:46.639Z,83.03
2017-05-09T05:05:47.261Z,83.03
2017-05-09T05:06:47.909Z,82.84
2017-05-09T05:07:48.505Z,82.31
2017-05-09T05:08:49.135Z,80.69
2017-05-09T05:09:49.815Z,79.74
2017-05-09T05:10:50.438Z,79.83
2017-05-09T05:11:51.058Z,78.98
2017-05-09T05:12:51.690Z,78.69
2017-05-09T05:13:52.327Z,78.92
2017-05-09T05:14:52.995Z,78.83
2017-05-09T05:15:53.622Z,77.53
2017-05-09T05:16:54.234Z,76.67
2017-05-09T05:17:54.864Z,75.62
2017-05-09T05:18:55.499Z,75.72
2017-05-09T05:19:56.179Z,75.18
2017-05-09T05:20:56.787Z,75.09
2017-05-09T05:21:57.407Z,74.38
2017-05-09T05:22:58.036Z,74.10
2017-05-09T05:23:58.658Z,74.54
2017-05-09T05:24:59.378Z,75.36
2017-05-09T05:25:59.988Z,76.59
2017-05-09T05:27:00.614Z,77.51
2017-05-09T05:28:01.226Z,78.78
2017-05-09T05:29:01.841Z,78.78
2017-05-09T05:30:02.460Z,78.35
2017-05-09T05:31:03.074Z,77.69
2017-05-09T05:32:03.688Z,76.82
2017-05-09T05:33:04.306Z,76.98
2017-05-09T05:34:04.927Z,76.88
2017-05-09T05:35:05.601Z,78.31
2017-05-09T05:36:06.224Z,77.69
2017-05-09T05:37:06.852Z,76.82
2017-05-09T05:38:07.478Z,76.48
2017-05-09T05:39:08.109Z,76.81
2017-05-09T05:40:08.782Z,75.47
2017-05-09T05:41:09.474Z,74.30
2017-05-09T05:42:10.077Z,72.97
2017-05-09T05:43:10.700Z,71.38
2017-05-09T05:44:11.327Z,70.42
2017-05-09T05:45:11.957Z,68.96
2017-05-09T05:46:12.567Z,69.49
2017-05-09T05:47:13.196Z,70.98
2017-05-09T05:48:13.808Z,72.03
2017-05-09T05:49:14.435Z,72.26
2017-05-09T05:50:15.057Z,71.69
2017-05-09T05:51:15.678Z,71.25
2017-05-09T05:52:16.299Z,70.67
2017-05-09T05:53:16.911Z,70.52
2017-05-09T05:54:17.537Z,68.96
2017-05-09T05:55:18.197Z,69.40
2017-05-09T05:56:18.817Z,70.45
2017-05-09T05:57:19.436Z,71.12
2017-05-09T05:58:20.052Z,71.25
2017-05-09T05:59:20.689Z,70.58
2017-05-09T06:00:21.297Z,70.29
2017-05-09T06:01:21.919Z,69.85
2017-05-09T06:02:22.536Z,69.70
2017-05-09T06:03:23.161Z,68.16
2017-05-09T06:04:23.784Z,66.76
2017-05-09T06:05:24.461Z,65.97
2017-05-09T06:06:25.089Z,66.25
2017-05-09T06:07:25.702Z,65.71
2017-05-09T06:08:26.328Z,65.17
2017-05-09T06:09:26.953Z,64.63
2017-05-09T06:10:27.570Z,63.48
2017-05-09T06:11:28.182Z,63.32
2017-05-09T06:12:28.809Z,63.03
2017-05-09T06:13:29.437Z,61.69
2017-05-09T06:14:30.066Z,61.31
2017-05-09T06:15:30.748Z,61.02
2017-05-09T06:16:31.388Z,61.15
2017-05-09T06:17:32.016Z,60.86
2017-05-09T06:18:32.646Z,61.05
2017-05-09T06:19:33.278Z,60.28
2017-05-09T06:20:34.142Z,60.06
2017-05-09T06:21:34.775Z,60.25
2017-05-09T06:22:35.417Z,60.73
2017-05-09T06:23:36.052Z,60.96
2017-05-09T06:24:36.687Z,60.50
2017-05-09T06:25:37.329Z,59.06
2017-05-09T06:26:37.955Z,58.87
2017-05-09T06:27:38.575Z,58.62
2017-05-09T06:28:39.194Z,58.42
2017-05-09T06:29:39.820Z,58.14
2017-05-09T06:30:40.489Z,57.56
2017-05-09T06:31:41.117Z,57.40
2017-05-09T06:32:41.741Z,57.11
2017-05-09T06:33:42.373Z,56.15
2017-05-09T06:34:42.992Z,55.86
2017-05-09T06:35:43.691Z,56.34
2017-05-09T06:36:44.337Z,56.41
2017-05-09T06:37:44.966Z,56.73
2017-05-09T06:38:45.600Z,56.60
2017-05-09T06:39:46.223Z,57.28
2017-05-09T06:40:46.904Z,57.15
2017-05-09T06:41:47.538Z,57.56
2017-05-09T06:42:48.167Z,57.28
2017-05-09T06:43:48.794Z,57.59
2017-05-09T06:44:49.424Z,57.11
2017-05-09T06:45:50.063Z,56.46
2017-05-09T06:46:50.701Z,55.89
2017-05-09T06:47:51.330Z,55.69
2017-05-09T06:48:51.960Z,55.22
2017-05-09T06:49:52.593Z,56.08
2017-05-09T06:50:53.224Z,56.08
2017-05-09T06:51:53.843Z,55.73
2017-05-09T06:52:54.479Z,54.69
2017-05-09T06:53:55.097Z,54.67
2017-05-09T06:54:55.730Z,55.32
2017-05-09T06:55:56.416Z,55.22
2017-05-09T06:56:57.045Z,55.47
2017-05-09T06:57:57.665Z,56.41
2017-05-09T06:58:58.296Z,56.63
2017-05-09T06:59:58.928Z,56.41
2017-05-09T07:00:59.607Z,56.79
2017-05-09T07:02:00.239Z,56.82
2017-05-09T07:03:00.873Z,55.96
2017-05-09T07:04:01.488Z,55.69
2017-05-09T07:05:02.119Z,55.22
2017-05-09T07:06:02.751Z,55.12
2017-05-09T07:07:03.382Z,54.96
2017-05-09T07:08:04.008Z,54.38
2017-05-09T07:09:04.639Z,54.77
2017-05-09T07:10:05.271Z,54.38
2017-05-09T07:11:05.956Z,52.77
2017-05-09T07:12:06.587Z,52.87
2017-05-09T07:13:07.207Z,52.87
2017-05-09T07:14:07.827Z,53.06
2017-05-09T07:15:08.458Z,53.45
2017-05-09T07:16:09.097Z,52.87
2017-05-09T07:17:09.727Z,52.26
2017-05-09T07:18:10.363Z,53.54
2017-05-09T07:19:10.984Z,53.45
2017-05-09T07:20:11.624Z,52.87
2017-05-09T07:21:12.336Z,51.79
2017-05-09T07:22:12.977Z,51.91
2017-05-09T07:23:13.640Z,50.85
2017-05-09T07:24:14.287Z,51.07
2017-05-09T07:25:14.968Z,51.26
2017-05-09T07:26:15.648Z,50.42
2017-05-09T07:27:16.279Z,49.94
2017-05-09T07:28:16.912Z,50.35
2017-05-09T07:29:17.532Z,49.68
2017-05-09T07:30:18.158Z,48.88
2017-05-09T07:31:18.777Z,48.79
2017-05-09T07:32:19.404Z,48.40
2017-05-09T07:33:20.037Z,47.65
2017-05-09T07:34:20.683Z,48.49
2017-05-09T07:35:21.339Z,48.40
2017-05-09T07:36:21.984Z,48.11
2017-05-09T07:37:22.616Z,48.61
2017-05-09T07:38:23.241Z,47.87
2017-05-09T07:39:23.890Z,47.97
2017-05-09T07:40:24.520Z,47.87
2017-05-09T07:41:25.149Z,47.85
2017-05-09T07:42:25.782Z,47.77
2017-05-09T07:43:26.404Z,47.60
2017-05-09T07:44:27.034Z,47.39
2017-05-09T07:45:27.662Z,47.77
2017-05-09T07:46:28.349Z,47.75
2017-05-09T07:47:28.979Z,46.69
2017-05-09T07:48:29.610Z,46.31
2017-05-09T07:49:30.234Z,45.73
2017-05-09T07:50:30.865Z,46.33
2017-05-09T07:51:31.542Z,46.59
2017-05-09T07:52:32.172Z,46.50
2017-05-09T07:53:32.789Z,46.52
2017-05-09T07:54:33.419Z,46.14
2017-05-09T07:55:34.052Z,45.84
2017-05-09T07:56:34.681Z,46.31
2017-05-09T07:57:35.304Z,45.90
2017-05-09T07:58:35.934Z,46.21
2017-05-09T07:59:36.561Z,46.33
2017-05-09T08:00:37.180Z,45.87
2017-05-09T08:01:37.810Z,45.77
2017-05-09T08:02:38.445Z,45.58
2017-05-09T08:03:39.079Z,45.97
2017-05-09T08:04:39.717Z,45.20
2017-05-09T08:05:40.336Z,45.46
2017-05-09T08:06:40.967Z,45.46
2017-05-09T08:07:41.598Z,45.17
2017-05-09T08:08:42.230Z,45.05
2017-05-09T08:09:42.848Z,45.65
2017-05-09T08:10:43.475Z,44.90
2017-05-09T08:11:44.110Z,43.82
2017-05-09T08:12:44.737Z,44.19
2017-05-09T08:13:45.366Z,44.21
2017-05-09T08:14:45.993Z,43.46
2017-05-09T08:15:46.616Z,42.28
2017-05-09T08:16:47.235Z,41.71
2017-05-09T08:17:47.864Z,41.72
2017-05-09T08:18:48.494Z,41.82
2017-05-09T08:19:49.118Z,41.82
2017-05-09T08:20:49.750Z,42.19
2017-05-09T08:21:50.373Z,41.71
2017-05-09T08:22:51.007Z,41.51
2017-05-09T08:23:51.624Z,42.26
2017-05-09T08:24:52.251Z,42.57
2017-05-09T08:25:52.875Z,42.93
2017-05-09T08:26:53.552Z,43.24
2017-05-09T08:27:54.180Z,43.15
2017-05-09T08:28:54.801Z,44.19
2017-05-09T08:29:55.432Z,44.69
2017-05-09T08:30:56.050Z,44.02
2017-05-09T08:31:56.721Z,43.34
2017-05-09T08:32:57.351Z,43.24
2017-05-09T08:33:57.973Z,43.37
2017-05-09T08:34:58.606Z,42.97
2017-05-09T08:35:59.226Z,41.89
2017-05-09T08:36:59.843Z,41.78
2017-05-09T08:38:00.462Z,41.61
2017-05-09T08:39:01.082Z,42.26
2017-05-09T08:40:01.701Z,43.40
2017-05-09T08:41:02.318Z,43.47
2017-05-09T08:42:02.939Z,43.57
2017-05-09T08:43:03.570Z,43.11
2017-05-09T08:44:04.198Z,42.63
2017-05-09T08:45:04.834Z,42.46
2017-05-09T08:46:05.461Z,42.36
2017-05-09T08:47:06.143Z,42.55
2017-05-09T08:48:06.777Z,42.36
2017-05-09T08:49:07.415Z,41.38
2017-05-09T08:50:08.030Z,41.38
2017-05-09T08:51:08.647Z,42.33
2017-05-09T08:52:09.322Z,42.63
2017-05-09T08:53:09.950Z,42.82
2017-05-09T08:54:10.577Z,42.53
2017-05-09T08:55:11.199Z,42.33
2017-05-09T08:56:11.834Z,42.16
2017-05-09T08:57:12.513Z,42.09
2017-05-09T08:58:13.140Z,41.39
2017-05-09T08:59:13.753Z,41.76
2017-05-09T09:00:14.370Z,42.97
2017-05-09T09:01:15.000Z,43.52
2017-05-09T09:02:15.717Z,43.04
2017-05-09T09:03:16.345Z,43.54
2017-05-09T09:04:16.965Z,43.18
2017-05-09T09:05:17.587Z,42.60
2017-05-09T09:06:18.219Z,41.86
2017-05-09T09:07:18.934Z,40.41
2017-05-09T09:08:19.534Z,40.12
2017-05-09T09:09:20.149Z,39.83
2017-05-09T09:10:20.771Z,40.72
2017-05-09T09:11:21.398Z,40.01
2017-05-09T09:12:22.031Z,40.51
2017-05-09T09:13:22.667Z,40.70
2017-05-09T09:14:23.297Z,39.54
2017-05-09T09:15:23.917Z,39.86
2017-05-09T09:16:24.536Z,39.66
2017-05-09T09:17:25.215Z,40.03
2017-05-09T09:18:25.848Z,39.36
2017-05-09T09:19:26.479Z,37.52
2017-05-09T09:20:27.102Z,37.52
2017-05-09T09:21:27.737Z,36.08
2017-05-09T09:22:28.401Z,35.50
2017-05-09T09:23:29.023Z,35.60
2017-05-09T09:24:29.654Z,36.83
2017-05-09T09:25:30.286Z,37.12
2017-05-09T09:26:30.916Z,37.81
2017-05-09T09:27:31.543Z,38.29
2017-05-09T09:28:32.169Z,38.29
2017-05-09T09:29:32.792Z,38.01
2017-05-09T09:30:33.427Z,37.34
2017-05-09T09:31:34.043Z,37.62
2017-05-09T09:32:34.679Z,38.29
2017-05-09T09:33:35.310Z,38.60
2017-05-09T09:34:35.936Z,37.62
2017-05-09T09:35:36.566Z,37.12
2017-05-09T09:36:37.195Z,37.70
2017-05-09T09:37:37.820Z,38.74
2017-05-09T09:38:38.442Z,39.12
2017-05-09T09:39:39.064Z,39.43
2017-05-09T09:40:39.682Z,38.26
2017-05-09T09:41:40.307Z,39.20
2017-05-09T09:42:40.926Z,41.77
2017-05-09T09:43:41.554Z,40.81
2017-05-09T09:44:42.184Z,40.72
2017-05-09T09:45:42.804Z,40.93
2017-05-09T09:46:43.435Z,40.43
2017-05-09T09:47:44.156Z,38.96
2017-05-09T09:48:44.793Z,39.37
2017-05-09T09:49:45.410Z,40.33
2017-05-09T09:50:46.261Z,40.16
2017-05-09T09:51:46.877Z,40.35
2017-05-09T09:52:47.556Z,40.72
2017-05-09T09:53:48.171Z,40.81
2017-05-09T09:54:48.800Z,40.72
2017-05-09T09:55:49.420Z,40.05
2017-05-09T09:56:50.049Z,39.83
2017-05-09T09:57:50.727Z,40.12
2017-05-09T09:58:51.354Z,40.81
2017-05-09T09:59:51.980Z,40.72
2017-05-09T10:00:52.596Z,40.50
2017-05-09T10:01:53.224Z,40.02
2017-05-09T10:02:53.851Z,41.08
2017-05-09T10:03:54.470Z,41.96
2017-05-09T10:04:55.104Z,41.37
2017-05-09T10:05:55.734Z,40.81
2017-05-09T10:06:56.354Z,40.62
2017-05-09T10:07:56.984Z,40.45
2017-05-09T10:08:57.611Z,39.39
2017-05-09T10:09:58.228Z,39.29
2017-05-09T10:10:58.861Z,39.97
2017-05-09T10:11:59.605Z,41.20
2017-05-09T10:13:00.283Z,41.46
2017-05-09T10:14:00.915Z,42.73
2017-05-09T10:15:01.535Z,42.06
2017-05-09T10:16:02.164Z,41.67
2017-05-09T10:17:02.792Z,41.20
2017-05-09T10:18:03.415Z,40.81
2017-05-09T10:19:04.032Z,40.06
2017-05-09T10:20:04.661Z,40.25
2017-05-09T10:21:05.279Z,40.18
2017-05-09T10:22:05.914Z,40.08
2017-05-09T10:23:06.542Z,39.89
2017-05-09T10:24:07.166Z,39.79
2017-05-09T10:25:07.786Z,39.81
2017-05-09T10:26:08.412Z,39.62
2017-05-09T10:27:09.040Z,39.53
2017-05-09T10:28:09.667Z,39.45
2017-05-09T10:29:10.285Z,39.45
2017-05-09T10:30:10.913Z,39.06
2017-05-09T10:31:11.544Z,38.29
2017-05-09T10:32:12.169Z,38.68
2017-05-09T10:33:12.840Z,38.97
2017-05-09T10:34:13.457Z,38.87
2017-05-09T10:35:14.080Z,38.51
2017-05-09T10:36:14.700Z,38.31
2017-05-09T10:37:15.330Z,38.31
2017-05-09T10:38:16.012Z,38.89
2017-05-09T10:39:16.639Z,38.60
2017-05-09T10:40:17.268Z,38.24
2017-05-09T10:41:18.097Z,37.93
2017-05-09T10:42:18.731Z,38.29
2017-05-09T10:43:19.414Z,38.10
2017-05-09T10:44:20.047Z,38.10
2017-05-09T10:45:20.669Z,38.39
2017-05-09T10:46:21.297Z,37.93
2017-05-09T10:47:21.925Z,37.85
2017-05-09T10:48:22.544Z,37.04
2017-05-09T10:49:23.179Z,37.24
2017-05-09T10:50:23.812Z,37.35
2017-05-09T10:51:24.445Z,37.35
2017-05-09T10:52:25.076Z,37.45
2017-05-09T10:53:25.754Z,37.35
2017-05-09T10:54:26.384Z,36.97
2017-05-09T10:55:27.003Z,37.81
2017-05-09T10:56:27.630Z,38.39
2017-05-09T10:57:28.263Z,38.37
2017-05-09T10:58:28.935Z,39.03
2017-05-09T10:59:29.554Z,39.89
2017-05-09T11:00:30.189Z,40.76
2017-05-09T11:01:30.813Z,39.91
2017-05-09T11:02:31.442Z,40.01
2017-05-09T11:03:32.137Z,39.03
2017-05-09T11:04:32.790Z,39.20
2017-05-09T11:05:33.404Z,39.97
2017-05-09T11:06:34.022Z,40.25
2017-05-09T11:07:34.652Z,39.99
2017-05-09T11:08:35.288Z,40.08
2017-05-09T11:09:35.926Z,40.08
2017-05-09T11:10:36.555Z,39.41
2017-05-09T11:11:37.182Z,39.14
2017-05-09T11:12:37.805Z,38.59
2017-05-09T11:13:38.478Z,38.59
2017-05-09T11:14:39.106Z,40.05
2017-05-09T11:15:39.758Z,39.66
2017-05-09T11:16:40.376Z,39.36
2017-05-09T11:17:41.007Z,38.28
2017-05-09T11:18:41.735Z,40.08
2017-05-09T11:19:42.363Z,42.58
2017-05-09T11:20:42.986Z,41.24
2017-05-09T11:21:43.608Z,41.62
2017-05-09T11:22:44.239Z,41.50
2017-05-09T11:23:44.858Z,41.70
2017-05-09T11:24:45.486Z,41.20
2017-05-09T11:25:46.114Z,41.17
2017-05-09T11:26:46.745Z,41.85
2017-05-09T11:27:47.367Z,42.02
2017-05-09T11:28:47.994Z,42.60
2017-05-09T11:29:48.619Z,42.88
2017-05-09T11:30:49.247Z,42.11
2017-05-09T11:31:49.874Z,41.37
2017-05-09T11:32:50.506Z,41.49
2017-05-09T11:33:51.171Z,40.73
2017-05-09T11:34:51.800Z,40.55
2017-05-09T11:35:52.436Z,39.58
2017-05-09T11:36:53.047Z,39.41
2017-05-09T11:37:53.667Z,39.03
2017-05-09T11:38:54.296Z,39.43
2017-05-09T11:39:54.915Z,39.36
2017-05-09T11:40:55.547Z,38.24
2017-05-09T11:41:56.177Z,37.77
2017-05-09T11:42:57.028Z,37.87
2017-05-09T11:43:57.701Z,38.43
2017-05-09T11:44:58.324Z,38.29
2017-05-09T11:45:58.946Z,38.87
2017-05-09T11:46:59.572Z,38.87
2017-05-09T11:48:00.186Z,38.76
2017-05-09T11:49:00.859Z,38.85
2017-05-09T11:50:01.482Z,39.04
2017-05-09T11:51:02.097Z,39.33
2017-05-09T11:52:02.711Z,39.14
2017-05-09T11:53:03.333Z,38.84
2017-05-09T11:54:03.998Z,39.03
2017-05-09T11:55:04.618Z,39.04
2017-05-09T11:56:05.233Z,39.24
2017-05-09T11:57:05.860Z,39.53
2017-05-09T11:58:06.490Z,39.24
2017-05-09T11:59:07.116Z,39.81
2017-05-09T12:00:07.739Z,39.83
2017-05-09T12:01:08.362Z,39.36
2017-05-09T12:02:08.978Z,39.47
2017-05-09T12:03:09.589Z,38.62
2017-05-09T12:04:10.267Z,38.26
2017-05-09T12:05:10.898Z,37.19
2017-05-09T12:06:11.524Z,36.04
2017-05-09T12:07:12.148Z,35.88
2017-05-09T12:08:12.765Z,35.90
2017-05-09T12:09:13.446Z,34.94
2017-05-09T12:10:14.079Z,35.05
2017-05-09T12:11:14.706Z,34.58
2017-05-09T12:12:15.335Z,33.80
2017-05-09T12:13:15.964Z,34.06
2017-05-09T12:14:16.635Z,34.06
2017-05-09T12:15:17.268Z,34.38
2017-05-09T12:16:17.906Z,34.39
2017-05-09T12:17:18.534Z,34.00
2017-05-09T12:18:19.163Z,34.10
2017-05-09T12:19:19.791Z,34.10
2017-05-09T12:20:20.428Z,34.86
2017-05-09T12:21:21.060Z,35.61
2017-05-09T12:22:21.678Z,35.69
2017-05-09T12:23:22.309Z,36.44
2017-05-09T12:24:22.929Z,37.02
2017-05-09T12:25:23.555Z,37.02
2017-05-09T12:26:24.186Z,36.87
2017-05-09T12:27:24.813Z,35.92
2017-05-09T12:28:25.437Z,35.22
2017-05-09T12:29:26.058Z,34.72
2017-05-09T12:30:26.693Z,35.27
2017-05-09T12:31:27.307Z,36.29
2017-05-09T12:32:27.922Z,37.45
2017-05-09T12:33:28.555Z,37.64
2017-05-09T12:34:29.188Z,37.27
2017-05-09T12:35:29.822Z,36.13
2017-05-09T12:36:30.452Z,35.86
2017-05-09T12:37:31.080Z,35.02
2017-05-09T12:38:31.706Z,35.42
2017-05-09T12:39:32.335Z,35.02
2017-05-09T12:40:32.960Z,35.21
2017-05-09T12:41:33.589Z,35.03
2017-05-09T12:42:34.219Z,34.78
2017-05-09T12:43:34.837Z,34.39
2017-05-09T12:44:35.500Z,33.72
2017-05-09T12:45:36.118Z,33.70
2017-05-09T12:46:36.751Z,34.36
2017-05-09T12:47:37.377Z,35.10
2017-05-09T12:48:38.006Z,35.75
2017-05-09T12:49:38.682Z,36.02
2017-05-09T12:50:39.308Z,36.33
2017-05-09T12:51:39.939Z,36.27
2017-05-09T12:52:40.767Z,35.21
2017-05-09T12:53:41.397Z,35.98
2017-05-09T12:54:42.077Z,35.59
2017-05-09T12:55:42.694Z,34.72
2017-05-09T12:56:43.333Z,34.84
2017-05-09T12:57:43.955Z,34.47
2017-05-09T12:58:44.580Z,34.78
2017-05-09T12:59:45.211Z,33.92
2017-05-09T13:00:45.833Z,34.33